Date,TemperatureHighF,TemperatureAvgF,TemperatureLowF,DewpointHighF,DewpointAvgF,DewpointLowF,HumidityHigh,HumidityAvg,HumidityLow,PressureMaxIn,PressureMinIn,WindSpeedMaxMPH,WindSpeedAvgMPH,GustSpeedMaxMPH,PrecipitationSumIn
2013-1-1,50,37,28,36,32,27,97,83,46,30.34,30.22,5,0,5,0.00
2013-1-2,53,36,24,34,28,22,96,76,36,30.34,30.23,5,0,5,0.00
2013-1-3,57,38,27,39,30,24,96,77,30,30.35,30.24,5,0,5,0.01
2013-1-4,58,40,29,36,31,26,93,74,39,30.37,30.26,4,0,4,0.00
2013-1-5,60,45,32,39,29,21,90,59,24,30.34,30.11,6,0,6,0.00
2013-1-6,45,39,29,41,35,28,96,88,60,30.16,30.08,6,0,6,0.30
2013-1-7,45,35,25,39,32,24,97,90,75,30.33,30.15,6,0,6,0.00
2013-1-8,57,40,28,43,35,27,98,83,50,30.31,30.22,4,0,4,0.01
2013-1-9,67,49,37,42,36,33,90,65,32,30.25,29.95,5,0,5,0.00
2013-1-10,43,22,0,39,18,0,94,52,61,30.18,29.95,10,0,10,0.08
2013-1-11,42,29,20,29,23,18,94,80,55,30.30,30.17,7,0,7,0.00
2013-1-12,41,30,18,28,23,16,95,78,46,30.30,30.20,6,0,6,0.01
2013-1-13,43,32,21,30,24,14,95,76,50,30.29,30.19,7,0,7,0.00
2013-1-14,42,29,0,29,23,0,94,74,53,30.48,30.24,6,0,6,0.00
2013-1-15,53,35,23,31,25,20,95,73,33,30.57,30.47,9,0,9,0.00
2013-1-16,60,41,28,33,28,22,86,64,28,30.53,30.35,5,0,5,0.00
2013-1-17,67,48,38,35,29,24,77,50,25,30.36,30.23,7,1,7,0.00
2013-1-18,69,49,36,34,29,23,74,50,21,30.28,30.17,7,1,7,0.00
2013-1-19,67,47,34,34,29,18,77,56,17,30.32,30.21,4,0,5,0.00
2013-1-20,64,46,33,36,30,24,76,57,23,30.30,30.18,5,0,5,0.00
2013-1-21,68,47,33,30,25,17,73,46,15,30.26,30.19,5,0,5,0.00
2013-1-22,71,49,35,34,26,12,64,46,11,30.23,30.11,4,0,4,0.00
2013-1-23,67,54,40,46,30,18,76,41,19,30.15,30.07,13,1,13,0.01
2013-1-24,60,53,48,56,50,42,96,89,61,30.20,30.08,7,0,7,0.36
2013-1-25,62,52,48,56,50,46,98,92,74,30.20,30.02,5,0,5,0.02
2013-1-26,54,48,41,49,45,40,97,90,76,30.04,29.97,3,0,4,0.02
2013-1-27,51,25,0,47,21,0,91,51,59,30.11,29.98,10,0,10,0.06
2013-1-28,46,31,0,36,27,0,97,75,59,30.31,30.09,6,0,6,1.38
2013-1-29,49,36,28,39,33,27,98,87,61,30.39,30.30,5,0,5,0.08
2013-1-30,63,42,29,44,35,28,98,80,36,30.44,30.34,5,0,5,0.00
2013-1-31,67,46,34,44,37,32,97,74,36,30.36,30.24,4,0,5,0.01
2013-2-1,70,50,36,45,37,30,89,66,31,30.27,30.15,7,0,7,0.00
2013-2-2,65,50,40,45,38,33,87,65,36,30.32,30.23,0,0,0,0.00
2013-2-3,65,47,35,47,38,30,96,72,36,30.25,30.12,6,0,6,0.00
2013-2-4,66,48,33,48,40,32,97,78,42,30.21,30.09,6,0,6,0.00
2013-2-5,64,48,35,47,39,31,96,76,40,30.13,30.02,5,0,5,0.00
2013-2-6,56,43,32,45,38,31,98,86,58,30.22,30.09,11,0,11,0.01
2013-2-7,52,41,36,39,36,34,94,83,54,30.22,29.96,9,0,9,0.00
2013-2-8,44,22,0,38,20,0,96,51,72,29.98,29.89,9,0,9,0.17
2013-2-9,49,36,25,36,32,24,97,84,58,30.17,29.98,6,0,6,0.01
2013-2-10,47,38,29,37,33,27,95,82,61,30.15,30.07,6,0,6,0.00
2013-2-11,54,38,25,38,30,24,97,78,44,30.34,30.12,6,0,6,0.00
2013-2-12,57,40,28,36,31,26,96,74,40,30.42,30.33,7,0,7,0.01
2013-2-13,60,43,30,39,34,28,94,73,36,30.40,30.26,5,0,5,0.00
2013-2-14,58,36,31,40,32,30,95,88,47,30.30,30.27,2,0,2,0.00
2013-2-16,69,51,37,40,32,25,84,53,22,30.33,30.09,1,0,5,0.00
2013-2-17,65,47,33,38,30,19,85,53,22,30.10,29.98,2,0,9,0.00
2013-2-18,64,46,34,41,36,30,92,71,33,30.06,29.92,2,0,7,0.00
2013-2-19,41,37,31,39,35,30,95,91,74,29.94,29.72,3,0,9,0.05
2013-2-20,41,34,29,36,31,28,96,90,78,30.13,29.78,1,0,3,0.52
2013-2-21,47,38,32,38,34,31,97,87,65,30.23,30.09,1,0,4,0.25
2013-2-22,54,42,30,42,36,28,97,81,54,30.30,30.22,2,0,7,0.00
2013-2-23,44,0,0,38,0,0,81,1,81,30.29,30.03,0,0,0,0.00
2013-2-24,0,0,0,0,0,0,0,0,100,30.21,30.04,0,0,0,0.00
2013-2-25,48,10,0,36,8,0,93,20,64,30.24,30.09,1,0,1,0.00
2013-2-26,45,33,30,39,31,28,95,93,79,30.32,30.19,1,0,1,0.00
2013-2-27,64,26,0,41,17,0,93,21,40,30.40,30.30,5,0,5,0.00
2013-2-28,66,32,0,48,22,0,85,34,35,30.45,30.30,5,0,6,0.00
2013-3-1,73,27,0,46,17,0,85,20,26,30.43,30.28,13,0,13,0.00
2013-3-2,75,60,48,42,35,32,60,41,21,30.29,30.09,14,1,14,0.00
2013-3-3,59,52,42,49,43,35,92,73,42,30.13,30.00,11,0,11,0.19
2013-3-4,64,50,38,47,42,36,92,75,48,30.15,30.05,11,1,11,0.01
2013-3-5,66,53,42,45,40,37,89,64,44,30.11,29.92,16,1,16,0.00
2013-3-6,50,45,0,37,30,0,60,48,52,30.04,29.91,3,0,3,0.00
2013-3-7,49,0,0,32,0,0,52,1,52,29.92,29.78,0,0,0,0.00
2013-3-8,0,0,0,0,0,0,0,0,100,29.78,29.69,0,0,0,0.00
2013-3-9,54,44,34,43,40,33,97,87,62,30.35,30.07,4,0,9,0.00
2013-3-10,65,48,33,46,39,32,97,75,38,30.41,30.30,2,0,6,0.00
2013-3-11,70,51,34,50,42,33,97,74,39,30.32,30.14,2,0,7,0.00
2013-3-12,77,57,38,51,41,30,96,62,24,30.18,30.09,2,0,6,0.00
2013-3-13,80,61,47,50,40,32,62,48,30,30.19,30.08,8,1,9,0.00
2013-3-14,81,63,51,51,43,33,61,49,28,30.15,30.06,6,1,6,0.00
2013-3-15,75,62,52,56,47,39,83,60,37,30.09,29.98,7,1,7,0.00
2013-3-16,73,58,48,56,47,39,88,67,41,30.04,29.96,10,1,10,0.00
2013-3-17,70,44,0,44,28,0,88,37,28,30.05,29.98,10,1,10,0.00
2013-3-18,69,56,48,45,40,34,63,55,34,30.07,30.00,7,1,7,0.00
2013-3-19,73,36,0,49,24,-16,61,26,36,30.13,30.01,9,1,10,0.00
2013-3-20,65,30,0,51,22,-6,74,30,42,30.12,30.02,7,0,7,0.00
2013-3-21,66,32,0,50,25,0,86,36,49,30.04,29.89,10,1,10,0.00
2013-3-22,63,28,0,47,20,0,86,26,47,30.01,29.89,10,1,10,0.00
2013-3-23,64,30,0,43,22,0,78,31,43,30.07,29.99,10,1,10,0.00
2013-3-24,69,36,0,47,26,0,85,33,41,30.08,29.94,12,1,12,0.00
2013-3-25,71,53,0,48,40,0,91,65,39,30.01,29.91,9,1,9,0.00
2013-3-26,70,33,0,46,23,0,78,29,39,29.95,29.85,10,1,10,0.00
2013-3-27,72,54,40,50,43,36,86,68,38,30.02,29.92,6,0,6,0.03
2013-3-28,66,26,0,51,19,0,84,24,51,30.03,29.99,7,0,7,0.00
2013-3-29,78,58,41,47,43,38,93,62,28,30.13,30.03,6,0,7,0.00
2013-3-30,78,63,45,49,44,38,77,53,31,30.07,29.94,12,0,12,0.00
2013-3-31,66,50,0,53,41,0,97,66,46,30.08,29.97,10,1,15,1.23
2013-4-1,65,49,41,52,45,40,97,89,53,30.14,30.05,5,0,5,0.22
2013-4-2,67,52,37,52,45,36,98,79,49,30.19,30.10,8,0,8,0.01
2013-4-3,78,58,43,57,49,42,97,74,41,30.16,30.00,5,0,9,0.00
2013-4-4,70,55,47,55,48,42,95,80,48,30.13,30.00,6,0,6,0.10
2013-4-5,68,54,41,52,45,40,97,75,46,30.14,30.08,9,0,9,0.01
2013-4-6,72,54,41,50,45,39,95,73,38,30.16,30.08,9,0,9,0.00
2013-4-7,73,56,40,51,45,39,97,71,40,30.13,29.83,7,0,9,0.00
2013-4-8,58,45,34,45,40,32,96,81,55,29.93,29.68,7,0,10,0.22
2013-4-9,68,49,30,41,34,22,91,60,26,30.09,29.92,7,0,7,0.00
2013-4-10,76,54,36,45,38,30,84,60,28,30.22,30.07,6,0,6,0.00
2013-4-11,76,59,44,52,46,41,92,66,37,30.08,29.80,7,0,7,0.00
2013-4-12,79,61,45,56,49,43,96,68,40,29.89,29.80,6,0,6,0.00
2013-4-13,78,62,46,53,47,43,93,60,36,29.86,29.75,7,0,7,0.00
2013-4-14,71,32,0,51,21,0,75,25,35,29.79,29.69,9,1,9,0.00
2013-4-15,62,50,36,46,38,33,93,65,42,29.85,29.77,14,1,14,0.00
2013-4-16,55,25,0,42,20,-12,88,40,49,30.06,29.84,7,0,7,0.37
2013-4-17,63,30,0,36,16,0,75,19,29,30.20,30.06,10,1,10,0.00
2013-4-18,70,50,0,38,31,0,78,49,27,30.30,30.16,11,1,11,0.00
2013-4-19,75,56,38,46,39,33,82,55,30,30.28,30.06,9,1,9,0.00
2013-4-20,80,60,43,50,44,39,86,60,28,30.08,29.97,9,0,9,0.00
2013-4-21,81,64,47,54,48,43,89,61,33,30.04,29.93,6,0,7,0.00
2013-4-22,85,66,49,57,48,42,87,56,28,29.99,29.81,6,0,6,0.00
2013-4-23,83,66,49,56,46,38,85,54,22,29.88,29.81,6,0,6,0.00
2013-4-24,53,50,47,42,41,39,76,71,66,29.86,29.80,1,0,1,0.00
2013-5-18,81,62,42,46,40,35,84,51,20,30.07,30.00,2,0,6,0.00
2013-5-19,86,65,44,48,42,37,81,49,21,30.04,29.92,2,0,9,0.00
2013-5-20,90,69,48,48,43,38,75,44,19,29.98,29.90,2,0,7,0.00
2013-5-21,90,69,51,50,40,32,69,40,14,29.93,29.79,2,0,7,0.00
2013-5-22,74,57,40,45,34,23,82,48,19,29.86,29.77,2,0,9,0.00
2013-5-23,75,55,34,35,30,25,77,43,17,29.97,29.86,2,0,7,0.00
2013-5-24,79,58,38,40,35,30,77,47,24,29.98,29.89,10,1,10,0.00
2013-5-25,78,49,0,41,28,-19,65,33,23,29.96,29.90,13,1,13,0.00
2013-5-26,76,59,41,45,38,32,73,48,31,30.07,29.95,7,1,7,0.00
2013-5-27,71,62,44,49,45,40,90,58,43,30.07,29.98,3,0,3,0.05
2013-5-28,79,68,52,54,47,44,79,47,39,29.98,29.80,7,0,7,0.01
2013-5-29,80,70,51,54,51,46,87,56,39,29.92,29.83,4,1,4,0.00
2013-5-30,80,47,0,54,33,0,61,29,39,29.91,29.83,3,0,3,0.00
2013-5-31,83,70,50,60,47,42,78,47,28,30.00,29.91,2,1,2,0.00
2013-6-1,88,76,54,53,48,43,68,40,27,29.98,29.81,2,1,2,0.00
2013-6-2,97,43,0,50,23,0,48,13,16,29.82,29.57,3,0,3,0.00
2013-6-3,92,79,56,53,49,42,64,37,26,29.78,29.64,4,1,4,0.00
2013-6-4,91,69,0,58,50,0,77,47,26,29.90,29.76,2,1,2,0.00
2013-6-5,88,76,0,60,54,0,84,48,35,29.94,29.84,3,0,3,0.00
2013-6-6,90,77,0,60,55,0,80,51,33,29.90,29.80,3,0,3,0.00
2013-6-7,97,84,60,60,57,51,73,44,28,29.84,29.74,3,2,3,0.00
2013-6-8,110,83,0,63,54,0,71,38,18,29.76,29.64,3,0,3,0.00
2013-6-9,85,81,68,63,61,57,71,53,47,29.74,29.68,1,0,1,0.00
2013-6-10,85,5,0,63,4,0,78,6,47,29.95,29.69,0,0,0,0.00
2013-6-11,76,67,52,54,50,46,82,58,42,29.99,29.90,2,1,2,0.00
2013-7-9,106,84,62,45,33,27,35,19,7,29.96,29.87,2,0,9,0.00
2013-7-10,108,84,63,47,39,28,33,22,7,29.91,29.80,2,0,6,0.00
2013-7-11,101,84,64,53,43,31,49,27,13,29.83,29.75,3,0,9,0.00
2013-7-12,100,77,57,48,40,34,49,29,12,29.85,29.78,5,0,10,0.00
2013-7-13,102,80,58,44,38,31,49,27,10,29.89,29.83,2,0,7,0.00
2013-7-14,104,81,60,45,39,36,43,26,11,29.91,29.79,3,0,9,0.00
2013-7-15,103,81,62,46,41,35,46,28,10,29.81,29.69,2,0,9,0.00
2013-7-16,91,74,62,46,41,37,45,31,17,29.93,29.74,12,1,12,0.00
2013-7-17,92,76,61,47,42,37,44,31,20,29.99,29.92,11,1,11,0.00
2013-7-18,96,79,63,47,43,38,49,30,18,29.98,29.85,10,1,10,0.00
2013-7-19,100,82,65,48,44,40,44,29,16,29.87,29.74,11,1,11,0.00
2013-7-20,102,85,69,53,48,44,46,30,16,29.78,29.64,9,1,10,0.00
2013-7-21,102,86,71,53,47,42,43,27,16,29.78,29.67,10,1,10,0.00
2013-7-22,95,80,70,65,52,44,84,40,22,29.86,29.75,12,1,12,0.02
2013-7-23,92,78,69,62,55,44,71,48,25,29.94,29.84,8,1,9,0.00
2013-7-24,96,82,67,55,51,48,56,37,21,29.91,29.80,10,1,10,0.00
2013-7-25,95,82,71,55,53,51,51,38,26,29.91,29.83,9,1,10,0.00
2013-7-26,100,84,72,58,52,44,55,36,17,29.98,29.89,12,1,12,0.00
2013-7-27,97,82,70,54,47,40,45,30,16,29.91,29.77,11,1,11,0.00
2013-7-28,96,82,70,51,45,40,42,29,15,29.78,29.70,10,1,10,0.00
2013-7-29,94,79,66,52,46,40,46,32,20,29.92,29.74,12,1,12,0.00
2013-7-30,95,79,64,50,45,41,47,32,18,29.98,29.91,11,1,11,0.00
2013-7-31,93,78,64,52,46,37,52,34,15,29.97,29.87,8,1,11,0.00
2013-8-1,92,75,62,45,37,27,45,28,11,29.94,29.85,10,1,11,0.00
2013-8-2,90,73,58,40,35,32,38,26,16,29.91,29.83,12,1,12,0.00
2013-8-3,92,75,61,41,36,33,41,27,15,29.91,29.83,12,1,12,0.00
2013-8-4,93,76,61,42,38,34,40,27,16,29.92,29.84,10,1,10,0.00
2013-8-5,94,77,62,43,39,34,41,27,16,29.93,29.83,10,1,10,0.00
2013-8-6,92,76,63,45,40,36,40,28,17,29.92,29.85,10,1,10,0.00
2013-8-7,86,72,60,51,44,39,50,37,24,29.98,29.92,10,1,10,0.00
2013-8-8,84,70,56,48,43,39,58,40,25,29.95,29.86,13,1,13,0.00
2013-8-9,86,71,56,44,41,38,55,37,22,29.92,29.85,10,1,10,0.00
2013-8-10,88,72,57,43,41,37,52,35,19,29.95,29.91,10,1,10,0.00
2013-8-11,89,73,59,45,42,38,52,35,19,29.95,29.86,11,1,11,0.00
2013-8-12,93,75,61,46,42,39,51,33,16,29.93,29.86,12,1,12,0.00
2013-8-13,96,78,62,44,40,36,44,28,14,29.93,29.84,12,1,12,0.00
2013-8-14,97,78,63,40,36,28,39,25,10,29.91,29.82,10,1,11,0.00
2013-8-15,98,80,63,34,30,26,28,18,8,29.91,29.83,10,1,10,0.00
2013-8-16,98,81,66,42,35,27,30,20,11,29.92,29.84,9,1,9,0.00
2013-8-17,97,81,68,44,41,38,35,25,14,29.90,29.76,11,1,11,0.00
2013-8-18,97,82,67,49,44,38,40,27,15,29.83,29.73,9,1,9,0.00
2013-8-19,103,86,71,55,47,41,45,28,16,29.84,29.72,20,2,20,0.00
2013-8-20,98,84,69,54,50,46,45,33,21,29.79,29.71,12,1,12,0.00
2013-8-21,97,80,68,53,43,24,51,30,9,29.83,29.75,16,1,16,0.00
2013-8-22,95,79,65,45,37,31,36,23,12,29.85,29.76,20,2,20,0.00
2013-8-23,92,76,62,49,39,32,42,28,19,29.82,29.72,13,1,13,0.00
2013-8-24,91,74,60,45,42,38,50,33,17,29.83,29.74,13,1,13,0.00
2013-8-25,90,74,60,48,43,39,47,35,20,29.89,29.81,14,1,14,0.00
2013-8-26,91,75,61,48,43,36,48,33,20,29.93,29.81,13,1,13,0.00
2013-8-27,90,77,63,51,47,41,49,37,21,29.85,29.73,14,1,14,0.00
2013-8-28,93,79,67,55,51,48,57,39,23,29.85,29.76,13,1,13,0.00
2013-8-29,96,79,65,52,48,44,56,36,21,29.95,29.85,11,1,11,0.00
2013-8-30,96,80,65,52,46,42,49,32,20,29.97,29.85,11,1,11,0.00
2013-8-31,92,78,68,50,46,42,44,33,22,29.92,29.82,6,0,7,0.00
2013-9-1,93,79,66,55,51,48,53,39,23,29.87,29.78,10,1,10,0.00
2013-9-2,92,79,67,58,55,52,61,46,30,29.86,29.77,15,1,15,0.00
2013-9-3,92,78,69,59,55,52,61,47,28,29.88,29.81,13,1,13,0.00
2013-9-4,94,79,67,57,53,52,59,43,26,29.92,29.83,6,1,10,0.00
2013-9-5,93,77,64,56,52,49,64,44,25,29.91,29.84,10,1,10,0.00
2013-9-6,94,77,63,53,50,46,62,41,23,29.91,29.79,6,1,10,0.00
2013-9-7,97,79,62,49,44,37,53,32,13,29.86,29.77,14,1,14,0.00
2013-9-8,97,80,66,45,40,33,36,26,12,29.82,29.70,11,1,11,0.00
2013-9-9,95,80,66,47,42,35,43,28,13,29.75,29.63,10,1,10,0.00
2013-9-10,94,78,66,47,42,38,39,28,18,29.80,29.68,12,1,12,0.00
2013-9-11,87,75,65,49,45,42,46,35,25,29.89,29.80,10,1,10,0.00
2013-9-12,88,74,61,51,48,46,59,42,25,29.91,29.81,10,1,10,0.00
2013-9-13,91,74,62,52,50,48,62,45,25,29.85,29.69,10,1,10,0.00
2013-9-14,94,78,64,53,51,49,60,42,25,29.74,29.63,10,1,10,0.00
2013-9-15,94,78,65,54,49,37,59,38,14,29.77,29.68,12,1,12,0.00
2013-9-16,94,76,62,49,45,36,49,35,14,29.81,29.71,11,1,11,0.00
2013-9-17,83,69,58,49,44,36,59,41,25,29.79,29.73,12,1,12,0.00
2013-9-18,82,66,54,47,41,38,59,42,27,29.85,29.77,10,1,10,0.00
2013-9-19,93,72,54,45,38,26,63,35,10,29.86,29.75,9,1,9,0.00
2013-9-20,88,72,59,43,36,28,50,28,17,29.80,29.71,12,1,12,0.00
2013-9-21,73,59,48,56,46,38,93,64,38,29.86,29.70,18,1,18,0.66
2013-9-22,70,55,42,50,46,40,96,74,42,29.99,29.85,9,1,9,0.01
2013-9-23,80,62,48,52,49,46,92,65,35,30.02,29.93,6,1,9,0.00
2013-9-24,82,66,52,50,46,42,75,53,29,29.99,29.83,11,1,11,0.00
2013-9-25,69,57,47,47,42,37,87,60,36,29.83,29.74,9,1,12,0.00
2013-9-26,68,54,43,42,36,30,80,54,24,29.98,29.74,9,1,9,0.00
2013-9-27,74,57,44,36,34,30,62,43,23,30.11,29.98,10,1,10,0.00
2013-9-28,82,63,48,39,34,28,64,38,16,30.12,30.02,7,1,10,0.00
2013-9-29,85,66,52,39,34,29,47,33,15,30.11,30.02,9,1,9,0.00
2013-9-30,81,65,52,46,40,34,61,41,21,30.05,29.92,6,1,9,0.00
2013-10-1,79,64,53,50,46,44,72,54,34,29.95,29.88,9,1,9,0.00
2013-10-2,78,63,53,50,44,36,77,52,27,29.95,29.88,6,1,7,0.00
2013-10-3,73,59,48,38,34,28,61,42,25,29.95,29.87,10,1,10,0.00
2013-10-4,76,58,44,34,31,26,52,37,19,30.16,29.94,10,1,10,0.00
2013-10-5,81,63,49,32,26,19,47,28,11,30.23,30.15,10,1,10,0.00
2013-10-6,84,65,50,31,28,23,42,28,11,30.17,30.02,10,1,10,0.00
2013-10-7,84,66,54,34,26,20,36,24,11,30.03,29.87,11,1,11,0.00
2013-10-8,78,62,51,31,27,23,40,28,14,29.88,29.67,12,1,12,0.00
2013-10-9,55,50,44,48,40,30,92,71,40,29.79,29.56,14,0,14,0.26
2013-10-10,46,45,44,44,43,42,94,93,93,29.84,29.78,2,0,2,0.00
2013-10-16,78,62,50,37,32,29,56,36,17,30.14,30.05,4,1,9,0.00
2013-10-17,78,62,50,36,32,30,51,35,20,30.08,29.97,4,1,10,0.00
2013-10-18,83,63,48,37,31,25,54,34,14,30.08,30.00,4,1,9,0.00
2013-10-19,83,65,52,31,27,21,35,25,11,30.09,30.01,4,1,9,0.00
2013-10-20,81,63,50,33,29,26,40,29,14,30.04,29.91,4,1,10,0.00
2013-10-21,84,64,50,36,31,25,48,31,15,30.00,29.91,4,1,7,0.00
2013-10-22,86,67,56,32,25,19,31,22,9,30.01,29.90,6,1,7,0.00
2013-10-23,83,65,54,34,28,21,41,27,11,29.94,29.85,5,1,7,0.00
2013-10-24,79,63,52,39,34,30,52,36,18,30.06,29.92,8,1,8,0.00
2013-10-25,79,62,50,42,38,35,60,44,23,30.15,30.06,5,1,7,0.00
2013-10-26,83,64,49,40,36,28,59,40,19,30.15,30.02,9,1,9,0.00
2013-10-27,77,61,46,41,33,26,79,37,20,30.04,29.60,10,1,10,0.00
2013-10-28,50,44,38,44,40,36,94,88,68,29.94,29.65,13,0,13,0.51
2013-10-29,56,45,36,44,39,35,95,80,53,30.07,29.94,7,0,7,0.01
2013-10-30,62,48,38,41,38,35,90,72,44,30.18,30.07,9,1,9,0.00
2013-10-31,70,52,40,43,39,35,90,64,29,30.22,30.12,5,1,7,0.00
2013-11-1,79,58,44,37,32,27,66,41,16,30.21,30.06,7,1,7,0.00
2013-11-2,75,58,46,37,33,28,57,42,21,30.07,29.90,9,1,9,0.00
2013-11-3,67,53,44,40,34,31,63,51,35,29.95,29.87,7,1,7,0.00
2013-11-4,59,48,39,41,36,31,81,62,42,30.08,29.85,9,1,9,0.00
2013-11-5,64,48,35,35,32,28,77,56,31,30.31,30.08,7,1,7,0.00
2013-11-6,74,55,43,35,28,23,64,40,16,30.33,30.24,7,1,7,0.00
2013-11-7,72,59,49,35,26,22,42,30,16,30.24,30.08,6,0,6,0.00
2013-11-8,74,57,47,32,29,26,51,36,18,30.11,29.97,7,1,7,0.00
2013-11-9,75,57,46,35,32,29,55,39,21,30.09,30.00,4,0,7,0.00
2013-11-10,78,60,48,31,22,12,44,26,8,30.13,30.06,10,1,10,0.00
2013-11-11,79,60,47,29,22,16,33,24,11,30.21,30.09,7,1,7,0.00
2013-11-12,75,60,53,37,30,22,45,33,19,30.29,30.16,4,0,4,0.00
2013-11-13,74,56,48,41,36,31,69,47,28,30.24,30.09,7,1,7,0.00
2013-11-14,74,57,46,41,39,35,73,53,27,30.14,29.83,6,0,6,0.00
2013-11-15,63,51,42,41,38,36,79,63,44,29.83,29.69,12,1,12,0.00
2013-11-16,63,49,40,42,38,34,85,67,45,29.96,29.78,9,1,9,0.00
2013-11-17,64,49,40,41,36,34,86,64,39,30.13,29.96,7,1,7,0.00
2013-11-18,64,51,42,39,37,34,77,60,37,30.17,30.07,5,0,5,0.00
2013-11-19,63,51,43,45,40,35,88,65,45,30.12,29.99,9,1,9,0.03
2013-11-20,60,51,46,51,47,44,94,85,66,30.02,29.84,6,0,6,0.37
2013-11-21,56,48,40,49,45,38,94,87,74,29.98,29.85,10,0,10,0.93
2013-11-22,54,45,39,45,41,37,94,87,64,30.04,29.95,6,0,6,0.01
2013-11-23,58,45,37,42,38,35,94,77,48,30.17,30.02,8,0,8,0.00
2013-11-24,58,44,33,44,37,32,97,78,51,30.31,30.16,4,0,4,0.00
2013-11-25,63,47,38,43,38,34,90,73,47,30.38,30.30,6,0,6,0.00
2013-11-26,68,50,40,43,37,32,84,62,32,30.33,30.13,6,0,6,0.00
2013-11-27,69,52,44,36,33,29,64,50,27,30.13,29.89,7,0,7,0.00
2013-11-28,63,51,44,39,36,32,69,58,39,30.13,29.91,5,0,7,0.00
2013-11-29,66,51,42,39,36,33,71,57,33,30.27,30.13,9,1,9,0.00
2013-11-30,64,50,41,40,37,34,78,63,38,30.31,30.22,6,1,10,0.00
2013-12-1,66,50,36,42,37,30,91,65,36,30.39,30.26,5,0,5,0.00
2013-12-2,72,52,42,41,37,33,76,58,28,30.31,29.95,6,0,6,0.00
2013-12-3,47,42,31,44,37,29,94,85,60,29.95,29.77,7,0,7,0.45
2013-12-4,42,34,28,35,29,26,95,85,64,30.11,29.88,9,0,9,0.01
2013-12-5,43,33,25,30,26,22,92,78,54,30.23,30.09,7,1,7,0.00
2013-12-6,44,32,21,30,24,19,95,74,51,30.25,30.11,8,1,8,0.01
2013-12-7,37,31,22,33,28,19,94,87,64,30.26,30.00,5,0,7,0.43
2013-12-8,39,28,20,28,23,17,94,82,60,30.39,30.26,5,0,6,0.06
2013-12-9,46,30,17,30,22,14,96,74,36,30.51,30.38,5,0,6,0.00
2013-12-10,51,35,21,29,24,17,92,67,35,30.51,30.29,4,0,4,0.08
2013-12-11,62,43,33,30,25,19,75,53,20,30.31,30.23,6,0,6,0.00
2013-12-12,63,45,36,28,22,17,58,43,18,30.30,30.21,7,1,7,0.00
2013-12-13,58,43,35,31,25,18,75,52,28,30.40,30.23,7,1,7,0.00
2013-12-14,65,46,34,32,26,23,74,49,21,30.46,30.36,8,1,8,0.00
2013-12-15,69,50,40,32,27,22,54,43,21,30.44,30.29,6,0,6,0.00
2013-12-16,76,56,45,36,30,22,52,39,13,30.32,30.16,5,0,5,0.00
2013-12-17,75,59,49,37,30,26,50,35,18,30.24,30.05,5,0,5,0.00
2013-12-18,72,59,48,40,35,26,64,42,24,30.06,29.70,9,0,9,0.00
2013-12-19,50,43,36,42,38,34,93,81,63,29.91,29.64,4,0,4,0.01
2013-12-20,50,39,28,41,35,27,97,84,59,30.06,29.90,6,0,6,0.00
2013-12-21,53,43,36,40,35,31,86,75,53,30.15,30.00,6,1,6,0.00
2013-12-22,62,46,34,37,33,30,89,64,32,30.38,30.15,5,0,7,0.00
2013-12-23,68,50,41,36,32,30,67,52,28,30.44,30.36,7,0,7,0.00
2013-12-24,66,50,41,39,34,31,69,57,34,30.37,30.23,9,1,9,0.00
2013-12-25,70,52,40,32,28,19,66,44,22,30.36,30.26,6,1,6,0.00
2013-12-26,71,53,43,32,27,23,55,39,18,30.31,30.22,5,1,6,0.00
2013-12-27,71,54,44,30,22,14,48,30,13,30.30,30.14,6,0,6,0.00
2013-12-28,66,50,39,31,24,14,68,38,17,30.15,30.02,7,1,7,0.00
2013-12-29,66,45,30,32,23,14,82,47,13,30.28,30.12,3,0,3,0.00
2013-12-30,68,49,37,27,20,14,46,34,13,30.33,30.24,3,0,3,0.00
2013-12-31,68,51,40,28,22,17,51,34,16,30.30,30.16,5,0,7,0.00
2014-1-1,70,50,40,31,27,23,56,43,19,30.26,30.15,6,1,6,0.00
2014-1-2,69,50,39,32,26,20,57,41,17,30.22,30.10,4,0,5,0.00